Time;durP1;ratioP1;P1;durP2;ratioP2;P2;SDS_P1;SDS_P2;PMS_P1;PMS_P2;Temp;Humidity;BMP_temperature;BMP_pressure;BME280_temperature;BME280_humidity;BME280_pressure;Samples;Min_cycle;Max_cycle;Signal;HPM_P1;HPM_P2
2022/11/09 00:03:13;;;;;;;26.63;12.63;;;;;7.60;96103.00;;;;10184375;23;20245;-77
2022/11/09 00:07:16;;;;;;;25.30;12.13;;;;;7.60;96097.00;;;;10184796;23;20233;-77
2022/11/09 00:11:20;;;;;;;32.33;13.13;;;;;7.60;96099.00;;;;10185294;23;20198;-78
2022/11/09 00:15:23;;;;;;;31.50;14.40;;;;;7.50;96101.00;;;;10185320;23;20202;-77
2022/11/09 00:19:27;;;;;;;29.93;13.10;;;;;7.50;96104.00;;;;10135894;23;20198;-77
2022/11/09 00:23:31;;;;;;;36.50;15.10;;;;;7.40;96105.00;;;;10136630;23;20210;-78
2022/11/09 00:27:34;;;;;;;38.37;14.33;;;;;7.40;96098.00;;;;10134944;23;20628;-78
2022/11/09 00:36:36;;;;;;;27.20;12.53;;;;;7.20;96094.00;;;;10185200;23;20213;-78
2022/11/09 00:40:39;;;;;;;35.97;14.07;;;;;7.10;96092.00;;;;10184282;23;20205;-78
2022/11/09 00:44:42;;;;;;;36.30;14.87;;;;;7.10;96084.00;;;;10184578;23;20206;-80
2022/11/09 00:48:46;;;;;;;34.63;14.83;;;;;7.10;96092.00;;;;10184851;23;20205;-79
2022/11/09 00:53:19;;;;;;;32.97;14.97;;;;;7.00;96094.00;;;;10184731;23;20205;-78
2022/11/09 00:57:24;;;;;;;34.17;14.00;;;;;6.90;96087.00;;;;10185556;23;20190;-79
2022/11/09 01:01:27;;;;;;;33.93;15.53;;;;;6.90;96091.00;;;;10166457;23;20624;-78
2022/11/09 01:05:30;;;;;;;38.93;15.40;;;;;6.90;96069.00;;;;10183250;23;20636;-78
2022/11/09 01:09:34;;;;;;;40.23;16.30;;;;;7.00;96044.00;;;;10172351;23;20260;-79
2022/11/09 01:14:12;;;;;;;41.33;16.60;;;;;7.10;96034.00;;;;10183897;23;20450;-79
2022/11/09 01:18:16;;;;;;;45.97;17.37;;;;;7.20;96042.00;;;;10181451;23;20194;-79
2022/11/09 01:22:19;;;;;;;50.43;18.97;;;;;7.40;96056.00;;;;10183819;23;20201;-79
2022/11/09 01:26:23;;;;;;;43.57;17.27;;;;;7.50;96074.00;;;;10183940;23;20202;-78
2022/11/09 01:30:27;;;;;;;43.37;17.23;;;;;7.60;96076.00;;;;10183535;23;20640;-78
2022/11/09 01:35:01;;;;;;;41.00;14.83;;;;;7.50;96067.00;;;;10165612;23;20189;-78
2022/11/09 01:39:04;;;;;;;38.37;15.93;;;;;7.50;96068.00;;;;10183536;23;20190;-79
2022/11/09 01:43:15;;;;;;;42.90;16.20;;;;;7.50;96078.00;;;;10185110;23;20284;-79
2022/11/09 01:47:25;;;;;;;43.00;17.27;;;;;7.50;96071.00;;;;10183028;23;20342;-78
2022/11/09 01:51:32;;;;;;;47.70;16.93;;;;;7.50;96065.00;;;;10184300;23;20205;-79
2022/11/09 01:55:36;;;;;;;51.20;19.63;;;;;7.60;96064.00;;;;10184699;23;20301;-79
2022/11/09 01:59:45;;;;;;;59.90;20.83;;;;;7.70;96069.00;;;;10184843;23;20193;-79
2022/11/09 02:03:54;;;;;;;48.83;17.70;;;;;7.80;96062.00;;;;10184274;23;20202;-79
2022/11/09 02:07:58;;;;;;;50.33;18.93;;;;;7.80;96069.00;;;;10184854;23;20205;-79
2022/11/09 02:12:01;;;;;;;51.47;18.87;;;;;7.90;96067.00;;;;10184056;23;20208;-79
2022/11/09 02:16:38;;;;;;;52.93;19.10;;;;;7.90;96053.00;;;;10184156;23;20190;-79
2022/11/09 02:20:48;;;;;;;58.63;20.20;;;;;7.90;96060.00;;;;10183991;23;20194;-80
2022/11/09 02:24:52;;;;;;;52.60;19.90;;;;;8.00;96055.00;;;;10193193;23;20212;-80
2022/11/09 02:29:02;;;;;;;65.73;22.00;;;;;8.00;96056.00;;;;10184624;23;20626;-78
2022/11/09 02:33:05;;;;;;;59.13;20.97;;;;;8.00;96050.00;;;;10183361;23;20260;-79
2022/11/09 02:37:45;;;;;;;56.03;19.30;;;;;8.00;96048.00;;;;10184015;23;20198;-78
2022/11/09 02:41:53;;;;;;;55.87;19.27;;;;;8.00;96056.00;;;;10183950;23;20605;-79
2022/11/09 02:45:56;;;;;;;62.27;20.57;;;;;8.00;96051.00;;;;10184077;23;20210;-80
2022/11/09 02:49:59;;;;;;;62.07;20.73;;;;;7.90;96067.00;;;;10191345;23;20217;-80
2022/11/09 02:54:04;;;;;;;55.17;19.73;;;;;7.90;96062.00;;;;10182733;23;20650;-80
2022/11/09 02:58:07;;;;;;;58.90;19.77;;;;;7.90;96055.00;;;;10183224;23;20201;-80
2022/11/09 03:02:10;;;;;;;60.53;19.67;;;;;7.80;96057.00;;;;10184710;23;20201;-80
2022/11/09 03:06:13;;;;;;;53.23;19.53;;;;;7.80;96047.00;;;;10186537;23;20209;-80
2022/11/09 03:10:18;;;;;;;54.33;19.70;;;;;7.70;96052.00;;;;10186679;23;20512;-81
2022/11/09 03:14:21;;;;;;;53.87;18.63;;;;;7.70;96052.00;;;;10187136;23;20632;-80
2022/11/09 03:18:58;;;;;;;60.10;19.07;;;;;7.70;96055.00;;;;10185935;23;20194;-81
2022/11/09 03:23:01;;;;;;;59.83;20.67;;;;;7.70;96063.00;;;;10185585;23;20201;-80
2022/11/09 03:27:06;;;;;;;49.23;19.50;;;;;7.80;96071.00;;;;10186457;23;20198;-81
2022/11/09 03:31:09;;;;;;;55.20;19.13;;;;;7.80;96063.00;;;;10186057;23;20198;-81
2022/11/09 03:35:46;;;;;;;59.50;18.97;;;;;7.70;96070.00;;;;10186350;23;20194;-81
2022/11/09 03:39:49;;;;;;;51.50;18.80;;;;;7.70;96075.00;;;;10186412;23;20278;-83
2022/11/09 03:43:54;;;;;;;60.80;22.83;;;;;7.60;96069.00;;;;10185676;23;20205;-80
2022/11/09 03:47:59;;;;;;;52.30;18.27;;;;;7.60;96061.00;;;;10186785;23;20249;-82
2022/11/09 03:52:02;;;;;;;49.07;18.57;;;;;7.60;96062.00;;;;10185826;23;20190;-82
2022/11/09 03:56:06;;;;;;;57.90;19.27;;;;;7.50;96069.00;;;;10185108;23;20190;-82
2022/11/09 04:00:41;;;;;;;56.70;18.97;;;;;7.50;96066.00;;;;10185762;23;20624;-79
2022/11/09 04:05:15;;;;;;;58.90;19.30;;;;;7.50;96065.00;;;;10185853;23;20516;-80
2022/11/09 04:09:52;;;;;;;52.57;19.33;;;;;7.50;96072.00;;;;10184320;23;20539;-82
2022/11/09 04:13:55;;;;;;;53.13;19.03;;;;;7.50;96058.00;;;;10186333;23;20194;-83
2022/11/09 04:18:31;;;;;;;48.53;18.90;;;;;7.50;96058.00;;;;10184811;23;20198;-81
2022/11/09 04:23:06;;;;;;;53.67;20.37;;;;;7.50;96060.00;;;;10185027;23;20194;-81
2022/11/09 04:27:41;;;;;;;53.80;18.77;;;;;7.50;96053.00;;;;10167652;23;20293;-82
2022/11/09 04:31:44;;;;;;;50.87;17.77;;;;;7.50;96054.00;;;;10160884;23;20263;-81
2022/11/09 04:36:23;;;;;;;58.63;18.93;;;;;7.50;96048.00;;;;10181678;23;20244;-81
2022/11/09 04:40:28;;;;;;;51.77;19.33;;;;;7.50;96038.00;;;;10185371;23;20651;-80
2022/11/09 04:45:02;;;;;;;57.53;19.57;;;;;7.40;96045.00;;;;10184563;23;20201;-80
2022/11/09 04:49:05;;;;;;;54.60;19.73;;;;;7.40;96044.00;;;;10171510;23;20201;-77
2022/11/09 04:53:37;;;;;;;55.93;18.63;;;;;7.30;96041.00;;;;10173589;23;20200;-77
2022/11/09 04:57:40;;;;;;;47.57;18.70;;;;;7.30;96052.00;;;;10161115;23;20193;-78
2022/11/09 05:01:44;;;;;;;50.73;18.07;;;;;7.30;96052.00;;;;10183940;23;20225;-78
2022/11/09 05:05:47;;;;;;;60.33;19.07;;;;;7.30;96062.00;;;;10172906;23;20256;-78
2022/11/09 05:10:25;;;;;;;63.37;22.77;;;;;7.20;96057.00;;;;10184521;23;20233;-78
2022/11/09 05:14:28;;;;;;;50.23;18.93;;;;;7.20;96067.00;;;;10183700;23;20601;-78
2022/11/09 05:18:32;;;;;;;44.37;18.57;;;;;7.10;96068.00;;;;10184817;23;20198;-78
2022/11/09 05:27:03;;;;;;;45.33;17.20;;;;;7.10;96076.00;;;;10182831;23;20201;-80
2022/11/09 05:31:07;;;;;;;54.57;20.03;;;;;7.00;96072.00;;;;10185091;23;20196;-80
2022/11/09 05:35:44;;;;;;;49.03;19.47;;;;;7.00;96072.00;;;;10178518;23;20198;-80
2022/11/09 05:39:47;;;;;;;54.63;19.87;;;;;7.00;96078.00;;;;10184969;23;20202;-80
2022/11/09 05:43:52;;;;;;;52.73;18.23;;;;;7.00;96064.00;;;;10184937;23;20617;-80
2022/11/09 05:47:55;;;;;;;47.67;17.90;;;;;7.00;96071.00;;;;10185200;23;20209;-79
2022/11/09 05:51:58;;;;;;;48.57;17.67;;;;;7.00;96083.00;;;;10184733;23;20233;-79
2022/11/09 05:56:34;;;;;;;44.53;17.50;;;;;6.90;96078.00;;;;10185246;23;20194;-78
2022/11/09 06:00:39;;;;;;;41.27;16.37;;;;;6.90;96085.00;;;;10184190;23;20194;-78
2022/11/09 06:04:42;;;;;;;45.60;17.77;;;;;7.00;96095.00;;;;10184495;23;20205;-78
2022/11/09 06:09:19;;;;;;;52.87;18.73;;;;;7.10;96098.00;;;;10177969;23;20209;-80
2022/11/09 06:13:56;;;;;;;51.30;18.30;;;;;7.10;96099.00;;;;10181824;23;20194;-81
2022/11/09 06:18:33;;;;;;;55.17;18.43;;;;;7.10;96095.00;;;;10179786;23;20524;-79
2022/11/09 06:22:37;;;;;;;52.13;18.70;;;;;7.20;96100.00;;;;10184739;23;20203;-76
2022/11/09 06:26:40;;;;;;;48.63;18.13;;;;;7.20;96109.00;;;;10184432;23;20198;-78
2022/11/09 06:30:43;;;;;;;53.57;17.93;;;;;7.30;96107.00;;;;10184186;23;20202;-80
2022/11/09 06:34:48;;;;;;;55.30;18.10;;;;;7.40;96116.00;;;;10184359;23;20205;-80
2022/11/09 06:38:53;;;;;;;53.07;18.40;;;;;7.40;96124.00;;;;10184929;23;20296;-80
2022/11/09 06:42:58;;;;;;;62.43;17.50;;;;;7.50;96145.00;;;;10187846;23;20198;-81
2022/11/09 06:47:31;;;;;;;52.27;17.93;;;;;7.60;96149.00;;;;10187357;23;20325;-81
2022/11/09 06:51:34;;;;;;;54.97;17.67;;;;;7.70;96151.00;;;;10161560;23;20193;-78
2022/11/09 06:55:39;;;;;;;45.10;16.77;;;;;7.70;96161.00;;;;10185982;23;20201;-78
2022/11/09 07:00:18;;;;;;;48.90;16.57;;;;;7.80;96158.00;;;;10188397;23;20242;-77
2022/11/09 07:04:55;;;;;;;44.17;16.90;;;;;7.90;96181.00;;;;10186250;23;20190;-79
2022/11/09 07:09:32;;;;;;;43.13;16.77;;;;;7.90;96184.00;;;;10187154;23;20521;-77
2022/11/09 07:14:10;;;;;;;45.97;16.50;;;;;8.00;96180.00;;;;10175048;23;20190;-76
2022/11/09 07:18:13;;;;;;;43.03;16.50;;;;;8.00;96196.00;;;;10167669;23;20193;-81
2022/11/09 07:22:17;;;;;;;45.43;16.83;;;;;8.10;96188.00;;;;10186199;23;20267;-84
2022/11/09 07:26:54;;;;;;;44.93;15.43;;;;;8.00;96216.00;;;;10174656;23;20229;-83
2022/11/09 07:30:59;;;;;;;38.80;15.90;;;;;7.90;96200.00;;;;10170941;23;20194;-85
2022/11/09 07:35:03;;;;;;;42.83;15.90;;;;;8.10;96207.00;;;;10174485;23;20198;-84
2022/11/09 07:39:06;;;;;;;35.13;15.83;;;;;8.40;96208.00;;;;10186691;23;20272;-84
2022/11/09 07:43:11;;;;;;;43.73;16.73;;;;;8.60;96210.00;;;;10174656;23;20198;-85
2022/11/09 07:47:18;;;;;;;34.17;15.53;;;;;8.70;96210.00;;;;10167849;23;20198;-83
2022/11/09 07:51:49;;;;;;;30.70;14.50;;;;;8.80;96214.00;;;;10187057;23;20193;-86
2022/11/09 07:55:57;;;;;;;36.93;15.10;;;;;8.90;96215.00;;;;10168594;23;20214;-86
2022/11/09 08:00:29;;;;;;;32.77;14.40;;;;;8.90;96219.00;;;;10167581;23;20209;-85
2022/11/09 08:04:33;;;;;;;40.97;15.97;;;;;9.00;96209.00;;;;10183078;23;20190;-83
2022/11/09 08:09:07;;;;;;;35.37;14.93;;;;;9.20;96228.00;;;;10185499;23;20194;-84
2022/11/09 08:13:14;;;;;;;29.33;13.07;;;;;9.40;96213.00;;;;10173671;23;20604;-84
2022/11/09 08:17:17;;;;;;;26.77;12.57;;;;;9.40;96211.00;;;;10185767;23;20194;-84
2022/11/09 08:21:22;;;;;;;31.13;13.35;;;;;9.50;96217.00;;;;10186343;23;20281;-83
2022/11/09 08:25:55;;;;;;;26.80;12.27;;;;;9.60;96219.00;;;;10186801;23;20253;-80
2022/11/09 08:30:32;;;;;;;29.10;14.50;;;;;9.80;96221.00;;;;10186125;23;20306;-79
2022/11/09 08:34:36;;;;;;;31.45;13.10;;;;;10.00;96231.00;;;;10174717;23;20196;-80
2022/11/09 08:38:41;;;;;;;25.30;13.20;;;;;10.00;96242.00;;;;10205116;23;20202;-81
2022/11/09 08:42:44;;;;;;;27.25;13.55;;;;;10.00;96230.00;;;;10185438;23;20520;-80
2022/11/09 08:46:47;;;;;;;25.80;13.63;;;;;10.00;96228.00;;;;10155059;23;20241;-79
2022/11/09 08:51:24;;;;;;;24.57;12.40;;;;;10.20;96228.00;;;;10159213;23;20210;-79
2022/11/09 08:55:29;;;;;;;24.50;12.02;;;;;10.30;96228.00;;;;10185906;23;20194;-79
2022/11/09 08:59:32;;;;;;;21.92;12.38;;;;;10.40;96231.00;;;;10184933;23;20582;-78
2022/11/09 09:03:35;;;;;;;21.63;11.35;;;;;10.50;96227.00;;;;10185319;23;20228;-77
2022/11/09 09:08:14;;;;;;;21.77;11.60;;;;;10.40;96230.00;;;;10184673;23;20501;-78
2022/11/09 09:12:19;;;;;;;19.88;11.02;;;;;10.50;96238.00;;;;10182221;23;20218;-78
2022/11/09 09:16:52;;;;;;;20.27;11.68;;;;;10.70;96229.00;;;;10185991;23;20224;-78
2022/11/09 09:20:55;;;;;;;16.83;10.68;;;;;10.80;96249.00;;;;10186196;23;20208;-79
2022/11/09 09:24:58;;;;;;;16.77;10.07;;;;;10.90;96248.00;;;;10185140;23;20204;-78
2022/11/09 09:29:03;;;;;;;14.88;9.52;;;;;10.90;96250.00;;;;10185983;23;20214;-78
2022/11/09 09:33:06;;;;;;;17.95;10.43;;;;;11.00;96251.00;;;;10184486;23;20247;-78
2022/11/09 09:37:09;;;;;;;15.18;9.57;;;;;11.00;96251.00;;;;10185579;23;20193;-79
2022/11/09 09:41:22;;;;;;;13.07;9.85;;;;;11.20;96256.00;;;;10185481;23;20257;-78
2022/11/09 09:45:30;;;;;;;16.38;10.00;;;;;11.50;96265.00;;;;10185437;23;20190;-78
2022/11/09 09:49:38;;;;;;;13.13;9.00;;;;;11.70;96264.00;;;;10184789;23;20209;-78
2022/11/09 09:53:46;;;;;;;12.30;9.05;;;;;11.50;96254.00;;;;10184903;23;20200;-78
2022/11/09 09:57:54;;;;;;;12.43;9.07;;;;;11.50;96267.00;;;;10184463;23;20203;-75
2022/11/09 10:02:27;;;;;;;14.05;8.98;;;;;11.20;96274.00;;;;10186169;23;20195;-77
2022/11/09 10:06:39;;;;;;;13.23;9.48;;;;;11.10;96266.00;;;;10180988;23;20189;-76
2022/11/09 10:10:51;;;;;;;13.18;8.68;;;;;11.10;96261.00;;;;10184556;23;20213;-77
2022/11/09 10:15:16;;;;;;;15.02;8.90;;;;;11.20;96257.00;;;;10182790;23;20198;-76
2022/11/09 10:19:34;;;;;;;13.70;9.32;;;;;11.40;96254.00;;;;10187787;23;20659;-76
2022/11/09 10:23:48;;;;;;;12.35;9.00;;;;;11.60;96249.00;;;;10188338;23;20198;-76
2022/11/09 10:27:54;;;;;;;11.73;8.90;;;;;11.70;96239.00;;;;10187610;23;20616;-76
2022/11/09 10:32:08;;;;;;;12.10;8.40;;;;;11.80;96236.00;;;;10188616;23;20198;-76
2022/11/09 10:36:20;;;;;;;11.30;8.25;;;;;11.90;96233.00;;;;10187994;23;20197;-76
2022/11/09 10:40:51;;;;;;;11.68;8.27;;;;;11.90;96232.00;;;;10188283;23;20192;-76
2022/11/09 10:44:55;;;;;;;12.48;7.90;;;;;12.00;96222.00;;;;10187764;23;20211;-76
2022/11/09 10:49:17;;;;;;;11.82;7.57;;;;;12.00;96217.00;;;;10187628;23;20604;-76
2022/11/09 10:53:24;;;;;;;11.20;8.10;;;;;12.00;96218.00;;;;10187633;23;20191;-76
2022/11/09 10:57:57;;;;;;;25.67;13.93;;;;;12.00;96206.00;;;;10170705;23;20194;-76
2022/11/09 11:02:00;;;;;;;15.02;8.68;;;;;12.10;96198.00;;;;10185173;23;20263;-77
2022/11/09 11:06:06;;;;;;;13.20;8.07;;;;;12.20;96198.00;;;;10188475;23;20501;-76
2022/11/09 11:10:17;;;;;;;10.32;7.90;;;;;12.40;96189.00;;;;10187708;23;20677;-76
2022/11/09 11:14:27;;;;;;;12.52;8.98;;;;;12.60;96187.00;;;;10188097;23;20619;-76
2022/11/09 11:18:56;;;;;;;9.95;7.82;;;;;12.70;96187.00;;;;10187096;23;20200;-76
2022/11/09 11:23:13;;;;;;;13.27;7.68;;;;;12.80;96197.00;;;;10187516;23;20209;-76
2022/11/09 11:27:24;;;;;;;9.32;7.68;;;;;12.90;96189.00;;;;10186791;23;20521;-76
2022/11/09 11:31:27;;;;;;;13.95;7.35;;;;;13.00;96183.00;;;;10186894;23;20619;-76
2022/11/09 11:35:43;;;;;;;9.13;7.18;;;;;13.20;96188.00;;;;10186558;23;20227;-76
2022/11/09 11:39:58;;;;;;;10.10;7.15;;;;;13.20;96182.00;;;;10186824;23;20206;-76
2022/11/09 11:44:15;;;;;;;10.45;7.60;;;;;13.10;96180.00;;;;10186939;23;20508;-76
2022/11/09 11:48:49;;;;;;;10.55;7.55;;;;;12.90;96170.00;;;;10187546;23;20196;-76
2022/11/09 11:53:06;;;;;;;9.25;7.38;;;;;12.70;96173.00;;;;10186921;23;20208;-76
2022/11/09 11:57:38;;;;;;;9.20;7.35;;;;;12.50;96158.00;;;;10186587;23;20199;-76
2022/11/09 12:01:55;;;;;;;10.88;7.65;;;;;12.40;96157.00;;;;10184700;23;20191;-77
2022/11/09 12:06:28;;;;;;;10.85;7.10;;;;;12.40;96152.00;;;;10152099;23;20200;-75
2022/11/09 12:10:56;;;;;;;11.80;7.35;;;;;12.40;96156.00;;;;10181440;23;20201;-76
2022/11/09 12:15:38;;;;;;;9.32;7.45;;;;;12.40;96146.00;;;;10186115;23;20191;-76
2022/11/09 12:20:16;;;;;;;10.77;7.72;;;;;12.30;96154.00;;;;10186069;23;20252;-75
2022/11/09 12:24:26;;;;;;;8.88;7.13;;;;;12.20;96135.00;;;;10173780;23;20196;-75
2022/11/09 12:28:54;;;;;;;9.15;7.05;;;;;12.20;96134.00;;;;10136474;23;20248;-78
2022/11/09 12:33:12;;;;;;;10.00;7.15;;;;;12.20;96132.00;;;;10162223;23;20245;-78
2022/11/09 12:37:43;;;;;;;9.35;7.63;;;;;12.20;96128.00;;;;10185323;23;20205;-78
2022/11/09 12:42:23;;;;;;;11.50;8.75;;;;;12.20;96123.00;;;;10185421;23;20258;-79
2022/11/09 12:46:32;;;;;;;11.73;8.45;;;;;12.30;96109.00;;;;10154947;23;20462;-78
2022/11/09 12:50:36;;;;;;;11.07;8.43;;;;;12.30;96110.00;;;;10173379;23;20217;-79
2022/11/09 12:54:42;;;;;;;10.98;8.68;;;;;12.30;96110.00;;;;10172839;23;20268;-78
2022/11/09 12:58:47;;;;;;;9.52;7.25;;;;;12.20;96116.00;;;;10186149;23;22600;-79
2022/11/09 13:02:54;;;;;;;12.75;8.05;;;;;12.20;96108.00;;;;10179563;23;20628;-78
2022/11/09 13:07:30;;;;;;;10.02;7.30;;;;;12.20;96117.00;;;;10172595;23;20195;-78
2022/11/09 13:11:37;;;;;;;11.32;8.25;;;;;12.30;96113.00;;;;10186158;23;20205;-78
2022/11/09 13:16:10;;;;;;;10.98;7.93;;;;;12.20;96118.00;;;;10184999;23;20195;-78
2022/11/09 13:20:47;;;;;;;11.70;7.85;;;;;12.20;96122.00;;;;10185185;23;20195;-78
2022/11/09 13:25:01;;;;;;;13.50;7.95;;;;;12.20;96134.00;;;;10185182;23;20193;-76
2022/11/09 13:29:47;;;;;;;13.02;8.38;;;;;12.20;96132.00;;;;10185213;23;20203;-77
2022/11/09 13:34:31;;;;;;;13.57;8.38;;;;;12.10;96126.00;;;;10185137;23;20216;-76
2022/11/09 13:38:36;;;;;;;12.45;8.85;;;;;12.20;96132.00;;;;10185386;23;20248;-76
2022/11/09 13:42:57;;;;;;;13.40;8.57;;;;;12.20;96131.00;;;;10183695;23;20541;-76
2022/11/09 13:47:00;;;;;;;13.10;8.68;;;;;12.30;96135.00;;;;10185178;23;20196;-76
2022/11/09 13:51:05;;;;;;;12.38;8.27;;;;;12.30;96134.00;;;;10185943;23;20209;-76
2022/11/09 13:55:21;;;;;;;12.75;8.02;;;;;12.30;96142.00;;;;10184964;23;20249;-76
2022/11/09 13:59:28;;;;;;;13.25;8.63;;;;;12.30;96146.00;;;;10185435;23;20503;-77
2022/11/09 14:03:31;;;;;;;13.40;8.77;;;;;12.30;96151.00;;;;10184044;23;20197;-77
2022/11/09 14:08:20;;;;;;;11.45;8.50;;;;;12.20;96155.00;;;;10185168;23;20197;-77
2022/11/09 14:12:40;;;;;;;14.75;9.02;;;;;12.20;96158.00;;;;10184978;23;20206;-76
2022/11/09 14:16:52;;;;;;;13.75;8.90;;;;;12.20;96157.00;;;;10170109;23;20203;-77
2022/11/09 14:21:26;;;;;;;14.45;9.15;;;;;12.10;96158.00;;;;10184111;23;20207;-77
2022/11/09 14:25:34;;;;;;;15.15;9.55;;;;;12.00;96148.00;;;;10166012;23;20245;-79
2022/11/09 14:30:15;;;;;;;15.90;10.38;;;;;11.90;96145.00;;;;10171622;23;20212;-76
2022/11/09 14:34:19;;;;;;;17.13;9.20;;;;;11.80;96150.00;;;;10174853;23;20488;-77
2022/11/09 14:38:24;;;;;;;217.45;113.50;;;;;11.80;96149.00;;;;10175149;23;20219;-76
2022/11/09 14:42:58;;;;;;;277.88;138.10;;;;;11.70;96164.00;;;;10184689;23;20204;-76
2022/11/09 14:47:03;;;;;;;633.65;316.25;;;;;11.60;96153.00;;;;10183795;23;20602;-76
2022/11/09 14:51:12;;;;;;;299.05;122.47;;;;;11.50;96165.00;;;;10184887;23;20231;-77
2022/11/09 14:55:17;;;;;;;86.72;36.05;;;;;11.50;96157.00;;;;10185276;23;20195;-77
2022/11/09 14:59:27;;;;;;;61.72;28.33;;;;;11.40;96160.00;;;;10181738;23;20234;-76
2022/11/09 15:04:19;;;;;;;30.48;15.40;;;;;11.40;96169.00;;;;10184822;23;20208;-77
2022/11/09 15:08:24;;;;;;;17.67;10.77;;;;;11.30;96165.00;;;;10036207;23;20233;-77
2022/11/09 15:12:29;;;;;;;42.17;15.68;;;;;11.20;96169.00;;;;10187160;23;20204;-77
2022/11/09 15:17:06;;;;;;;22.42;11.48;;;;;11.20;96170.00;;;;10187222;23;20186;-76
2022/11/09 15:21:43;;;;;;;18.48;11.75;;;;;11.10;96186.00;;;;10186886;23;20198;-77
2022/11/09 15:25:55;;;;;;;19.00;11.02;;;;;11.10;96184.00;;;;10171018;23;20194;-76
2022/11/09 15:29:58;;;;;;;18.70;11.25;;;;;11.00;96183.00;;;;10179812;23;20210;-76
2022/11/09 15:34:36;;;;;;;18.02;12.10;;;;;10.90;96195.00;;;;10186195;23;20501;-76
2022/11/09 15:38:41;;;;;;;21.23;14.68;;;;;10.90;96184.00;;;;10136982;23;20190;-76
2022/11/09 15:42:46;;;;;;;20.90;11.15;;;;;10.80;96181.00;;;;10134829;23;20625;-76
2022/11/09 15:47:26;;;;;;;24.70;13.23;;;;;10.70;96179.00;;;;10137264;23;20507;-76
2022/11/09 15:52:00;;;;;;;22.50;12.05;;;;;10.60;96174.00;;;;10186023;23;20202;-76
2022/11/09 15:56:37;;;;;;;22.35;13.45;;;;;10.60;96188.00;;;;10150084;23;20215;-79
2022/11/09 16:01:16;;;;;;;20.90;12.00;;;;;10.60;96186.00;;;;10164279;23;20194;-80
2022/11/09 16:05:53;;;;;;;21.63;12.32;;;;;10.60;96189.00;;;;10161113;23;20243;-80
2022/11/09 16:10:31;;;;;;;29.10;16.77;;;;;10.60;96200.00;;;;10186126;23;20194;-80
2022/11/09 16:14:35;;;;;;;24.98;15.93;;;;;10.50;96206.00;;;;10186102;23;20201;-79
2022/11/09 16:19:13;;;;;;;20.60;12.43;;;;;10.50;96211.00;;;;10185302;23;20190;-79
2022/11/09 16:23:48;;;;;;;24.52;14.77;;;;;10.50;96205.00;;;;10151923;23;20202;-79
2022/11/09 16:28:24;;;;;;;24.13;15.30;;;;;10.50;96209.00;;;;10186268;23;21778;-80
2022/11/09 16:33:01;;;;;;;24.40;14.13;;;;;10.50;96220.00;;;;10185487;23;20245;-76
2022/11/09 16:37:05;;;;;;;71.72;56.60;;;;;10.50;96222.00;;;;10181566;23;20190;-76
2022/11/09 16:41:41;;;;;;;28.80;16.98;;;;;10.40;96229.00;;;;10185449;23;20253;-76
2022/11/09 16:45:47;;;;;;;25.98;16.25;;;;;10.40;96243.00;;;;10185821;23;20257;-76
2022/11/09 16:50:20;;;;;;;24.33;13.88;;;;;10.40;96244.00;;;;10185158;23;20640;-77
2022/11/09 16:54:25;;;;;;;20.17;11.75;;;;;10.40;96254.00;;;;10141071;23;20188;-78
2022/11/09 16:58:28;;;;;;;21.23;13.43;;;;;10.30;96258.00;;;;10186537;23;20193;-78
2022/11/09 17:03:07;;;;;;;21.10;12.38;;;;;10.30;96248.00;;;;10187884;23;20202;-79
2022/11/09 17:07:43;;;;;;;20.38;12.55;;;;;10.30;96256.00;;;;10184997;23;20453;-81
2022/11/09 17:11:48;;;;;;;24.67;13.32;;;;;10.30;96256.00;;;;10168326;23;20199;-82
2022/11/09 17:15:52;;;;;;;24.73;13.93;;;;;10.30;96264.00;;;;10170971;23;20236;-82
2022/11/09 17:19:55;;;;;;;21.95;12.80;;;;;10.30;96270.00;;;;10185065;23;20249;-82
2022/11/09 17:24:32;;;;;;;19.77;12.43;;;;;10.30;96273.00;;;;10183477;23;20496;-80
2022/11/09 17:28:38;;;;;;;32.33;17.35;;;;;10.30;96271.00;;;;10171940;23;20202;-79
2022/11/09 17:33:10;;;;;;;25.20;14.47;;;;;10.30;96280.00;;;;10168025;23;20759;-78
2022/11/09 17:37:13;;;;;;;24.77;13.40;;;;;10.40;96279.00;;;;10166811;23;20248;-81
2022/11/09 17:41:18;;;;;;;22.27;13.98;;;;;10.40;96288.00;;;;10183958;23;20201;-78
2022/11/09 17:45:54;;;;;;;27.50;14.10;;;;;10.40;96285.00;;;;10175536;23;20438;-79
2022/11/09 17:49:57;;;;;;;22.10;12.65;;;;;10.30;96285.00;;;;10160006;23;20207;-78
2022/11/09 17:54:02;;;;;;;25.05;14.23;;;;;10.30;96291.00;;;;10165204;23;20194;-78
2022/11/09 17:58:05;;;;;;;29.35;14.13;;;;;10.20;96291.00;;;;10183975;23;20203;-78
2022/11/09 18:02:44;;;;;;;24.95;13.80;;;;;10.20;96291.00;;;;10183600;23;20194;-76
2022/11/09 18:07:21;;;;;;;24.10;13.95;;;;;10.20;96286.00;;;;10184717;23;20194;-78
2022/11/09 18:11:58;;;;;;;26.60;14.35;;;;;10.10;96290.00;;;;10184578;23;20193;-78
2022/11/09 18:16:05;;;;;;;24.40;14.50;;;;;10.00;96301.00;;;;10184113;23;20195;-81
2022/11/09 18:20:39;;;;;;;26.63;14.75;;;;;10.00;96299.00;;;;10185041;23;20199;-83
2022/11/09 18:24:42;;;;;;;28.90;14.07;;;;;10.00;96304.00;;;;10154165;23;20197;-82
2022/11/09 18:28:45;;;;;;;29.85;15.75;;;;;9.90;96309.00;;;;10184712;23;20198;-85
2022/11/09 18:33:21;;;;;;;31.38;14.65;;;;;9.90;96309.00;;;;10182520;23;20198;-86
2022/11/09 18:37:26;;;;;;;29.45;14.95;;;;;9.90;96311.00;;;;10188169;23;20198;-80
2022/11/09 18:41:29;;;;;;;27.80;14.82;;;;;9.80;96322.00;;;;10186489;23;21204;-78
2022/11/09 18:46:07;;;;;;;29.13;14.52;;;;;9.80;96301.00;;;;10187888;23;20193;-80
2022/11/09 18:50:10;;;;;;;33.17;14.57;;;;;9.70;96325.00;;;;10165053;23;20245;-83
2022/11/09 18:54:14;;;;;;;38.47;18.90;;;;;9.70;96313.00;;;;10175484;23;20249;-78
2022/11/09 18:58:49;;;;;;;35.20;16.63;;;;;9.80;96309.00;;;;10173884;23;20202;-80
2022/11/09 19:02:52;;;;;;;38.47;18.23;;;;;9.80;96308.00;;;;10170484;23;20205;-81
2022/11/09 19:06:55;;;;;;;45.10;19.48;;;;;9.80;96310.00;;;;10187021;23;20198;-78
2022/11/09 19:11:05;;;;;;;32.50;16.50;;;;;9.90;96319.00;;;;10186159;23;20198;-81
2022/11/09 19:15:09;;;;;;;31.50;16.08;;;;;9.90;96336.00;;;;10185587;23;20699;-78
2022/11/09 19:19:14;;;;;;;36.63;16.05;;;;;9.80;96338.00;;;;10168583;23;20219;-77
2022/11/09 19:23:17;;;;;;;34.75;16.58;;;;;9.80;96331.00;;;;10186246;23;20300;-77
2022/11/09 19:27:55;;;;;;;42.80;20.92;;;;;9.80;96325.00;;;;10174371;23;20256;-79
2022/11/09 19:31:58;;;;;;;31.83;16.33;;;;;9.80;96332.00;;;;10171189;23;20293;-78
2022/11/09 19:36:02;;;;;;;40.13;17.10;;;;;9.90;96327.00;;;;10176409;23;20238;-76
2022/11/09 19:40:25;;;;;;;36.63;17.33;;;;;9.90;96344.00;;;;10171123;23;20199;-76
2022/11/09 19:45:01;;;;;;;39.80;17.55;;;;;9.90;96350.00;;;;10185106;23;20249;-74
2022/11/09 19:49:40;;;;;;;38.17;17.13;;;;;9.90;96344.00;;;;10183196;23;20198;-75
2022/11/09 19:54:15;;;;;;;40.90;15.88;;;;;10.00;96363.00;;;;10185794;23;20627;-76
2022/11/09 19:58:49;;;;;;;36.05;16.33;;;;;10.00;96373.00;;;;10168553;23;20195;-76
2022/11/09 20:03:25;;;;;;;40.03;16.90;;;;;10.00;96369.00;;;;10181601;23;20264;-76
2022/11/09 20:07:32;;;;;;;33.42;17.10;;;;;10.00;96374.00;;;;10163922;23;20220;-77
2022/11/09 20:16:11;;;;;;;38.30;17.17;;;;;10.00;96386.00;;;;10181021;23;20260;-73
2022/11/09 20:20:48;;;;;;;42.30;17.77;;;;;10.00;96385.00;;;;10184402;23;20513;-76
2022/11/09 20:25:26;;;;;;;44.30;18.93;;;;;10.10;96380.00;;;;10182824;23;20605;-74
2022/11/09 20:30:00;;;;;;;42.07;17.57;;;;;10.10;96389.00;;;;10185672;23;20617;-74
2022/11/09 20:34:37;;;;;;;46.47;18.55;;;;;10.10;96404.00;;;;10184366;23;20362;-73
2022/11/09 20:38:40;;;;;;;40.83;18.70;;;;;10.00;96403.00;;;;10185025;23;20258;-73
2022/11/09 20:43:19;;;;;;;43.45;19.15;;;;;9.90;96411.00;;;;10186018;23;20254;-74
2022/11/09 20:47:56;;;;;;;46.28;18.00;;;;;9.90;96409.00;;;;10185791;23;20218;-73
2022/11/09 20:52:31;;;;;;;35.38;16.02;;;;;9.90;96409.00;;;;10178476;23;20220;-77
2022/11/09 20:56:45;;;;;;;37.25;16.08;;;;;10.00;96413.00;;;;10185232;23;20266;-76
2022/11/09 21:01:24;;;;;;;35.38;15.90;;;;;10.00;96425.00;;;;10160822;23;20301;-76